首页
METAR-TAF:

METAR-TAF

机场 :

威廉斯波特, 宾夕法尼亚州, 美国

纬度: 41-14-30N, 经度: 076-55-15W, 海拔: 161米

当前天气观测

该预报发布于26分钟前的04:54 UTC
风速9节,风向西
温度 1°C
湿度 69%
气压 1015 hPa
能見度: 16.1公里
散云层高于3300英尺
阴天层高于9000英尺

METAR: KIPT 190454Z AUTO 27009KT 10SM SCT033 OVC090 01/M04 A2996 RMK AO2 SLP151 T00111039 400391022

时间: 00:20 (05:20 UTC)

预报

该预报发布于1小时和52分钟前的03:28 UTC
预报有效从19日的 03点(UTC)到 19日的 24点(UTC)
风速7节,风向西
能見度: 10公里
多云层高于3500英尺
从 19日的 1800点(UTC)
风速9节,风向西,有时为18节阵风
能見度: 10公里
多云层高于4500英尺

TAF: KIPT 190328Z 1903/1924 27007KT P6SM BKN035 FM191800 26009G18KT P6SM BKN045

超过4000个机场的气象观测和天气预报(METAR&TAF报告)。

可查询的气象台以黄色和红色小点在地图上表示。

将鼠标移到小点上方,可查看气象台名称。

然后点击查看天气观测和预报。

如需切换地图:点击带黑十字的绿色按钮放大地图;点击带横线的绿色按钮缩小地图;或者点击绿色箭头查看邻近地区的地图。


METAR-TAF: